Terminal Aerodrome Forecast
Issued by NWS

Home | Current Version | Previous Version | Text Only | Print | Product List | Glossary Off
Versions: 1 2 3 4 5 6 7 8 9 10 11 12 13 14 15 16

000
FTUS42 KMHX 261146
TAFPGV
TAF
KPGV 261146Z 2612/2712 00000KT 2SM BR VCSH BKN003 OVC080
     FM261400 05004KT P6SM VCSH SCT040
     FM261900 06005KT P6SM VCTS SCT025 BKN040CB
     FM270400 00000KT 3SM BR SCT005
      AMD LTD TO CLD VIS AND WIND=

USA.gov is the U.S. government's official web portal to all federal, state and local government web resources and services.